sensor_id;sensor_type;location;lat;lon;timestamp;pressure;altitude;pressure_sealevel;temperature;humidity
51297;BME280;37380;45.186;9.792;2022-09-20T00:01:08;100821.22;;;14.52;70.41
51297;BME280;37380;45.186;9.792;2022-09-20T00:03:37;101028.13;;;15.77;70.29
51297;BME280;37380;45.186;9.792;2022-09-20T00:06:07;100931.28;;;15.19;70.10
51297;BME280;37380;45.186;9.792;2022-09-20T00:08:34;100987.97;;;15.45;69.82
51297;BME280;37380;45.186;9.792;2022-09-20T00:11:04;101012.81;;;15.59;69.78
51297;BME280;37380;45.186;9.792;2022-09-20T00:13:33;100992.47;;;15.52;69.38
51297;BME280;37380;45.186;9.792;2022-09-20T00:16:05;101004.00;;;15.57;69.27
51297;BME280;37380;45.186;9.792;2022-09-20T00:18:33;101039.47;;;15.75;69.65
51297;BME280;37380;45.186;9.792;2022-09-20T00:21:00;101004.72;;;15.49;68.88
51297;BME280;37380;45.186;9.792;2022-09-20T00:23:34;101036.75;;;15.69;68.65
51297;BME280;37380;45.186;9.792;2022-09-20T00:26:29;101033.06;;;15.62;68.85
51297;BME280;37380;45.186;9.792;2022-09-20T00:29:03;101032.97;;;15.59;68.76
51297;BME280;37380;45.186;9.792;2022-09-20T00:32:05;100861.63;;;14.57;69.21
51297;BME280;37380;45.186;9.792;2022-09-20T00:35:00;101022.22;;;15.47;71.60
51297;BME280;37380;45.186;9.792;2022-09-20T00:37:40;101023.59;;;15.28;73.24
51297;BME280;37380;45.186;9.792;2022-09-20T00:40:16;100999.22;;;15.38;73.29
51297;BME280;37380;45.186;9.792;2022-09-20T00:42:52;100995.34;;;15.65;68.95
51297;BME280;37380;45.186;9.792;2022-09-20T00:46:01;101038.91;;;15.91;68.48
51297;BME280;37380;45.186;9.792;2022-09-20T00:49:24;100997.75;;;15.52;69.61
51297;BME280;37380;45.186;9.792;2022-09-20T00:52:20;101042.38;;;15.45;73.71
51297;BME280;37380;45.186;9.792;2022-09-20T00:54:54;101028.06;;;15.32;74.94
51297;BME280;37380;45.186;9.792;2022-09-20T00:57:54;101009.97;;;15.49;72.77
51297;BME280;37380;45.186;9.792;2022-09-20T01:00:54;101013.53;;;15.51;73.65
51297;BME280;37380;45.186;9.792;2022-09-20T01:03:24;101035.31;;;15.42;75.94
51297;BME280;37380;45.186;9.792;2022-09-20T01:05:53;101035.59;;;15.57;74.37
51297;BME280;37380;45.186;9.792;2022-09-20T01:08:22;101039.88;;;15.51;74.75
51297;BME280;37380;45.186;9.792;2022-09-20T01:10:51;101047.66;;;15.46;75.44
51297;BME280;37380;45.186;9.792;2022-09-20T01:13:18;101031.44;;;15.25;76.58
51297;BME280;37380;45.186;9.792;2022-09-20T01:15:46;101053.22;;;15.17;78.93
51297;BME280;37380;45.186;9.792;2022-09-20T01:18:15;101020.47;;;14.65;83.55
51297;BME280;37380;45.186;9.792;2022-09-20T01:20:44;101020.19;;;14.52;83.56
51297;BME280;37380;45.186;9.792;2022-09-20T01:26:40;101043.31;;;14.32;84.77
51297;BME280;37380;45.186;9.792;2022-09-20T01:30:25;101071.06;;;14.20;87.50
51297;BME280;37380;45.186;9.792;2022-09-20T01:35:34;101044.13;;;13.96;91.08
51297;BME280;37380;45.186;9.792;2022-09-20T01:41:05;101076.84;;;13.75;94.71
51297;BME280;37380;45.186;9.792;2022-09-20T01:46:31;101072.94;;;13.91;91.55
51297;BME280;37380;45.186;9.792;2022-09-20T01:49:13;101073.97;;;13.98;90.51
51297;BME280;37380;45.186;9.792;2022-09-20T02:01:53;101093.66;;;13.50;97.75
51297;BME280;37380;45.186;9.792;2022-09-20T02:05:08;101080.19;;;13.38;98.59
51297;BME280;37380;45.186;9.792;2022-09-20T02:22:21;101083.22;;;13.84;96.40
51297;BME280;37380;45.186;9.792;2022-09-20T02:25:36;101092.09;;;13.57;98.23
51297;BME280;37380;45.186;9.792;2022-09-20T02:50:08;101083.31;;;12.98;100.00
51297;BME280;37380;45.186;9.792;2022-09-20T03:00:00;101090.75;;;12.84;100.00
51297;BME280;37380;45.186;9.792;2022-09-20T03:18:10;101061.06;;;12.58;100.00
51297;BME280;37380;45.186;9.792;2022-09-20T03:20:57;101065.16;;;12.48;100.00
51297;BME280;37380;45.186;9.792;2022-09-20T03:32:50;101115.25;;;12.57;100.00
51297;BME280;37380;45.186;9.792;2022-09-20T03:35:27;101115.06;;;12.53;100.00
51297;BME280;37380;45.186;9.792;2022-09-20T03:48:55;101120.72;;;13.48;100.00
51297;BME280;37380;45.186;9.792;2022-09-20T03:51:35;101076.38;;;13.28;100.00
51297;BME280;37380;45.186;9.792;2022-09-20T04:04:32;101118.63;;;13.66;100.00
51297;BME280;37380;45.186;9.792;2022-09-20T04:13:11;101127.78;;;13.80;100.00
51297;BME280;37380;45.186;9.792;2022-09-20T04:18:36;101131.38;;;13.84;100.00
51297;BME280;37380;45.186;9.792;2022-09-20T04:21:30;101095.50;;;13.53;100.00
51297;BME280;37380;45.186;9.792;2022-09-20T04:24:21;101139.09;;;13.78;100.00
51297;BME280;37380;45.186;9.792;2022-09-20T04:30:28;101135.72;;;13.82;100.00
51297;BME280;37380;45.186;9.792;2022-09-20T04:33:35;101142.41;;;13.72;100.00
51297;BME280;37380;45.186;9.792;2022-09-20T04:40:03;101144.88;;;13.66;100.00
51297;BME280;37380;45.186;9.792;2022-09-20T04:43:27;101127.81;;;13.50;100.00
51297;BME280;37380;45.186;9.792;2022-09-20T04:45:47;101139.31;;;13.55;100.00
51297;BME280;37380;45.186;9.792;2022-09-20T05:16:48;101187.34;;;13.81;99.96
51297;BME280;37380;45.186;9.792;2022-09-20T05:20:12;101179.41;;;14.10;98.37
51297;BME280;37380;45.186;9.792;2022-09-20T05:31:14;101177.78;;;14.47;95.04
51297;BME280;37380;45.186;9.792;2022-09-20T05:34:04;101197.31;;;14.55;94.21
51297;BME280;37380;45.186;9.792;2022-09-20T05:36:47;101196.66;;;14.64;94.01
51297;BME280;37380;45.186;9.792;2022-09-20T05:39:26;101172.59;;;14.17;96.24
51297;BME280;37380;45.186;9.792;2022-09-20T05:42:03;101162.41;;;13.97;97.29
51297;BME280;37380;45.186;9.792;2022-09-20T05:47:38;101208.13;;;14.36;97.07
51297;BME280;37380;45.186;9.792;2022-09-20T05:50:58;101205.81;;;14.46;95.95
51297;BME280;37380;45.186;9.792;2022-09-20T05:54:34;101207.03;;;14.59;95.88
51297;BME280;37380;45.186;9.792;2022-09-20T05:58:02;101203.66;;;14.63;95.57
51297;BME280;37380;45.186;9.792;2022-09-20T06:01:15;101215.53;;;14.50;97.38
51297;BME280;37380;45.186;9.792;2022-09-20T06:03:49;101214.09;;;14.60;98.31
51297;BME280;37380;45.186;9.792;2022-09-20T06:12:42;101153.06;;;15.48;91.84
51297;BME280;37380;45.186;9.792;2022-09-20T06:15:19;101224.84;;;16.66;86.50
51297;BME280;37380;45.186;9.792;2022-09-20T06:23:30;101199.16;;;18.32;77.13
51297;BME280;37380;45.186;9.792;2022-09-20T06:26:30;101217.59;;;18.29;77.93
51297;BME280;37380;45.186;9.792;2022-09-20T06:29:06;101223.09;;;18.49;78.73
51297;BME280;37380;45.186;9.792;2022-09-20T06:32:04;101203.44;;;18.21;81.27
51297;BME280;37380;45.186;9.792;2022-09-20T06:34:31;101116.97;;;18.17;79.87
51297;BME280;37380;45.186;9.792;2022-09-20T06:43:07;101179.09;;;17.78;84.74
51297;BME280;37380;45.186;9.792;2022-09-20T06:45:34;101209.97;;;18.59;82.32
51297;BME280;37380;45.186;9.792;2022-09-20T06:48:01;101189.22;;;18.13;83.00
51297;BME280;37380;45.186;9.792;2022-09-20T06:50:28;101180.31;;;18.92;80.45
51297;BME280;37380;45.186;9.792;2022-09-20T06:53:02;101236.81;;;18.92;79.81
51297;BME280;37380;45.186;9.792;2022-09-20T06:56:03;101237.59;;;18.84;79.62
51297;BME280;37380;45.186;9.792;2022-09-20T06:59:04;101170.06;;;18.36;79.64
51297;BME280;37380;45.186;9.792;2022-09-20T07:02:01;101158.63;;;18.40;79.16
51297;BME280;37380;45.186;9.792;2022-09-20T07:04:28;101228.97;;;19.08;77.13
51297;BME280;37380;45.186;9.792;2022-09-20T07:07:02;101211.53;;;18.41;80.84
51297;BME280;37380;45.186;9.792;2022-09-20T07:09:42;101252.91;;;19.18;77.79
51297;BME280;37380;45.186;9.792;2022-09-20T07:12:40;101204.03;;;18.80;75.98
51297;BME280;37380;45.186;9.792;2022-09-20T07:15:14;101200.16;;;18.45;76.76
51297;BME280;37380;45.186;9.792;2022-09-20T07:18:10;101215.88;;;18.31;77.46
51297;BME280;37380;45.186;9.792;2022-09-20T07:20:37;101228.59;;;18.69;76.67
51297;BME280;37380;45.186;9.792;2022-09-20T07:23:11;101233.88;;;18.66;76.94
51297;BME280;37380;45.186;9.792;2022-09-20T07:26:23;101256.41;;;19.16;74.19
51297;BME280;37380;45.186;9.792;2022-09-20T07:28:51;101236.69;;;18.82;76.91
51297;BME280;37380;45.186;9.792;2022-09-20T07:31:20;101238.69;;;19.07;74.92
51297;BME280;37380;45.186;9.792;2022-09-20T07:33:48;101245.91;;;19.28;73.19
51297;BME280;37380;45.186;9.792;2022-09-20T07:36:16;101198.56;;;18.67;75.30
51297;BME280;37380;45.186;9.792;2022-09-20T07:38:47;101248.06;;;19.83;72.43
51297;BME280;37380;45.186;9.792;2022-09-20T07:41:21;101216.78;;;19.30;74.56
51297;BME280;37380;45.186;9.792;2022-09-20T07:44:17;101250.66;;;19.71;72.88
51297;BME280;37380;45.186;9.792;2022-09-20T07:46:57;101281.03;;;20.42;70.49
51297;BME280;37380;45.186;9.792;2022-09-20T07:49:32;101230.19;;;19.50;70.51
51297;BME280;37380;45.186;9.792;2022-09-20T07:52:26;101279.22;;;20.19;69.19
51297;BME280;37380;45.186;9.792;2022-09-20T07:55:00;101237.22;;;19.48;71.61
51297;BME280;37380;45.186;9.792;2022-09-20T07:58:01;101276.53;;;20.18;69.37
51297;BME280;37380;45.186;9.792;2022-09-20T08:01:04;101260.13;;;19.39;72.62
51297;BME280;37380;45.186;9.792;2022-09-20T08:04:07;101271.03;;;19.79;73.35
51297;BME280;37380;45.186;9.792;2022-09-20T08:07:09;101226.72;;;19.63;71.65
51297;BME280;37380;45.186;9.792;2022-09-20T08:10:03;101286.22;;;20.12;71.87
51297;BME280;37380;45.186;9.792;2022-09-20T08:12:30;101273.88;;;20.13;71.31
51297;BME280;37380;45.186;9.792;2022-09-20T08:15:18;101288.13;;;20.41;69.55
51297;BME280;37380;45.186;9.792;2022-09-20T08:17:47;101293.56;;;20.69;68.35
51297;BME280;37380;45.186;9.792;2022-09-20T08:20:13;101248.19;;;20.03;71.40
51297;BME280;37380;45.186;9.792;2022-09-20T08:22:41;101219.06;;;20.20;68.24
51297;BME280;37380;45.186;9.792;2022-09-20T08:25:15;101279.41;;;20.82;66.90
51297;BME280;37380;45.186;9.792;2022-09-20T08:28:09;101290.91;;;20.66;68.18
51297;BME280;37380;45.186;9.792;2022-09-20T08:30:36;101266.88;;;20.32;70.19
51297;BME280;37380;45.186;9.792;2022-09-20T08:33:03;101238.47;;;20.06;69.88
51297;BME280;37380;45.186;9.792;2022-09-20T08:35:30;101237.69;;;20.38;69.04
51297;BME280;37380;45.186;9.792;2022-09-20T08:38:04;101268.75;;;20.54;68.90
51297;BME280;37380;45.186;9.792;2022-09-20T08:41:33;101266.16;;;21.19;65.92
51297;BME280;37380;45.186;9.792;2022-09-20T08:44:34;101288.31;;;21.21;64.44
51297;BME280;37380;45.186;9.792;2022-09-20T08:47:16;101298.03;;;21.08;66.94
51297;BME280;37380;45.186;9.792;2022-09-20T08:49:44;101230.69;;;20.71;65.61
51297;BME280;37380;45.186;9.792;2022-09-20T08:52:18;101221.78;;;20.41;67.04
51297;BME280;37380;45.186;9.792;2022-09-20T08:54:53;101290.97;;;21.41;65.26
51297;BME280;37380;45.186;9.792;2022-09-20T08:57:56;101297.22;;;21.47;68.18
51297;BME280;37380;45.186;9.792;2022-09-20T09:00:58;101283.03;;;21.36;64.05
51297;BME280;37380;45.186;9.792;2022-09-20T09:04:22;101284.72;;;21.94;63.60
51297;BME280;37380;45.186;9.792;2022-09-20T09:07:24;101263.50;;;21.63;62.66
51297;BME280;37380;45.186;9.792;2022-09-20T09:10:19;101264.41;;;21.30;66.29
51297;BME280;37380;45.186;9.792;2022-09-20T09:12:47;101228.94;;;20.88;65.95
51297;BME280;37380;45.186;9.792;2022-09-20T09:15:22;101097.88;;;20.14;64.55
51297;BME280;37380;45.186;9.792;2022-09-20T09:17:52;101253.75;;;21.09;65.93
51297;BME280;37380;45.186;9.792;2022-09-20T09:20:21;101221.88;;;21.02;66.16
51297;BME280;37380;45.186;9.792;2022-09-20T09:23:25;101257.31;;;21.28;64.50
51297;BME280;37380;45.186;9.792;2022-09-20T09:25:53;101214.78;;;21.49;62.26
51297;BME280;37380;45.186;9.792;2022-09-20T09:28:25;101251.06;;;21.76;62.96
51297;BME280;37380;45.186;9.792;2022-09-20T09:31:23;101273.06;;;22.32;62.22
51297;BME280;37380;45.186;9.792;2022-09-20T09:33:53;101234.09;;;22.05;62.62
51297;BME280;37380;45.186;9.792;2022-09-20T09:36:23;101248.22;;;22.34;62.55
51297;BME280;37380;45.186;9.792;2022-09-20T09:42:24;101244.56;;;23.63;56.59
51297;BME280;37380;45.186;9.792;2022-09-20T09:45:10;101247.59;;;24.08;54.42
51297;BME280;37380;45.186;9.792;2022-09-20T09:48:22;101247.38;;;23.46;56.29
51297;BME280;37380;45.186;9.792;2022-09-20T09:50:51;101215.59;;;23.25;57.38
51297;BME280;37380;45.186;9.792;2022-09-20T09:53:39;101246.78;;;24.05;55.14
51297;BME280;37380;45.186;9.792;2022-09-20T10:09:29;101222.00;;;23.07;60.84
51297;BME280;37380;45.186;9.792;2022-09-20T10:14:59;101227.88;;;22.20;62.04
51297;BME280;37380;45.186;9.792;2022-09-20T10:17:49;101231.47;;;21.96;60.30
51297;BME280;37380;45.186;9.792;2022-09-20T10:35:14;101212.38;;;22.85;57.27
51297;BME280;37380;45.186;9.792;2022-09-20T10:40:39;101200.88;;;24.43;54.00
51297;BME280;37380;45.186;9.792;2022-09-20T10:47:04;101203.50;;;22.82;58.28
51297;BME280;37380;45.186;9.792;2022-09-20T10:50:25;101194.31;;;24.02;50.68
51297;BME280;37380;45.186;9.792;2022-09-20T10:54:16;101185.66;;;22.98;54.45
51297;BME280;37380;45.186;9.792;2022-09-20T10:56:51;101167.91;;;22.91;56.93
51297;BME280;37380;45.186;9.792;2022-09-20T11:02:48;101183.06;;;22.85;54.07
51297;BME280;37380;45.186;9.792;2022-09-20T11:05:42;101187.28;;;23.12;55.46
51297;BME280;37380;45.186;9.792;2022-09-20T11:08:16;101189.50;;;22.53;61.61
51297;BME280;37380;45.186;9.792;2022-09-20T11:10:48;101164.63;;;23.54;54.13
51297;BME280;37380;45.186;9.792;2022-09-20T11:16:09;101178.78;;;23.61;52.56
51297;BME280;37380;45.186;9.792;2022-09-20T11:18:48;101185.69;;;24.48;51.21
51297;BME280;37380;45.186;9.792;2022-09-20T11:26:34;101195.44;;;24.49;50.73
51297;BME280;37380;45.186;9.792;2022-09-20T11:29:15;101186.69;;;24.97;54.10
51297;BME280;37380;45.186;9.792;2022-09-20T11:31:47;101187.41;;;25.06;51.75
51297;BME280;37380;45.186;9.792;2022-09-20T11:34:50;101177.41;;;25.19;48.61
51297;BME280;37380;45.186;9.792;2022-09-20T11:37:31;101183.69;;;24.62;49.45
51297;BME280;37380;45.186;9.792;2022-09-20T11:40:36;101144.06;;;24.32;49.90
51297;BME280;37380;45.186;9.792;2022-09-20T11:43:31;101173.28;;;24.98;48.48
51297;BME280;37380;45.186;9.792;2022-09-20T11:46:08;101175.53;;;25.24;48.96
51297;BME280;37380;45.186;9.792;2022-09-20T11:49:26;101149.72;;;25.22;47.42
51297;BME280;37380;45.186;9.792;2022-09-20T11:53:08;101134.06;;;24.48;46.23
51297;BME280;37380;45.186;9.792;2022-09-20T11:59:29;101159.44;;;24.75;49.17
51297;BME280;37380;45.186;9.792;2022-09-20T12:02:46;101154.88;;;24.81;46.38
51297;BME280;37380;45.186;9.792;2022-09-20T12:05:42;101099.25;;;24.52;46.97
51297;BME280;37380;45.186;9.792;2022-09-20T12:08:33;101144.63;;;25.06;46.69
51297;BME280;37380;45.186;9.792;2022-09-20T12:11:06;101138.47;;;25.03;49.73
51297;BME280;37380;45.186;9.792;2022-09-20T12:13:36;101132.97;;;24.58;51.84
51297;BME280;37380;45.186;9.792;2022-09-20T12:16:12;101010.13;;;24.04;49.74
51297;BME280;37380;45.186;9.792;2022-09-20T12:21:20;101126.16;;;23.77;46.54
51297;BME280;37380;45.186;9.792;2022-09-20T12:28:57;101106.50;;;23.84;50.12
51297;BME280;37380;45.186;9.792;2022-09-20T12:31:53;101111.41;;;24.13;49.19
51297;BME280;37380;45.186;9.792;2022-09-20T12:39:23;101114.81;;;24.24;46.99
51297;BME280;37380;45.186;9.792;2022-09-20T12:47:27;101097.03;;;23.55;47.65
51297;BME280;37380;45.186;9.792;2022-09-20T12:50:29;101095.69;;;23.93;49.45
51297;BME280;37380;45.186;9.792;2022-09-20T12:53:35;101068.94;;;23.96;48.63
51297;BME280;37380;45.186;9.792;2022-09-20T12:56:38;101054.66;;;24.00;46.32
51297;BME280;37380;45.186;9.792;2022-09-20T12:59:39;101085.44;;;24.24;46.92
51297;BME280;37380;45.186;9.792;2022-09-20T13:02:57;101078.28;;;24.25;47.06
51297;BME280;37380;45.186;9.792;2022-09-20T13:05:36;101081.69;;;24.36;45.38
51297;BME280;37380;45.186;9.792;2022-09-20T13:11:50;101009.41;;;23.27;45.98
51297;BME280;37380;45.186;9.792;2022-09-20T13:14:38;101002.38;;;23.20;47.40
51297;BME280;37380;45.186;9.792;2022-09-20T13:17:25;101032.25;;;23.47;48.04
51297;BME280;37380;45.186;9.792;2022-09-20T13:19:58;101046.19;;;23.70;48.97
51297;BME280;37380;45.186;9.792;2022-09-20T13:22:42;100860.03;;;22.67;47.23
51297;BME280;37380;45.186;9.792;2022-09-20T13:25:16;100838.31;;;22.27;47.32
51297;BME280;37380;45.186;9.792;2022-09-20T13:28:38;101052.41;;;23.71;46.98
51297;BME280;37380;45.186;9.792;2022-09-20T13:31:47;100854.41;;;22.11;46.44
51297;BME280;37380;45.186;9.792;2022-09-20T13:38:02;101014.09;;;23.07;49.14
51297;BME280;37380;45.186;9.792;2022-09-20T13:41:15;100948.59;;;22.85;48.09
51297;BME280;37380;45.186;9.792;2022-09-20T13:43:47;101035.91;;;23.40;48.12
51297;BME280;37380;45.186;9.792;2022-09-20T13:46:27;101038.13;;;23.73;48.04
51297;BME280;37380;45.186;9.792;2022-09-20T13:49:31;100888.78;;;23.10;47.91
51297;BME280;37380;45.186;9.792;2022-09-20T13:52:32;101024.34;;;24.04;47.77
51297;BME280;37380;45.186;9.792;2022-09-20T13:55:37;100888.63;;;23.22;48.40
51297;BME280;37380;45.186;9.792;2022-09-20T13:58:41;100902.84;;;23.21;45.31
51297;BME280;37380;45.186;9.792;2022-09-20T14:01:49;100907.63;;;22.95;47.54
51297;BME280;37380;45.186;9.792;2022-09-20T14:04:28;100986.72;;;23.61;45.65
51297;BME280;37380;45.186;9.792;2022-09-20T14:07:29;101019.59;;;23.63;46.50
51297;BME280;37380;45.186;9.792;2022-09-20T14:10:33;100845.84;;;22.65;46.10
51297;BME280;37380;45.186;9.792;2022-09-20T14:13:05;101000.78;;;23.73;49.19
51297;BME280;37380;45.186;9.792;2022-09-20T14:15:36;100909.41;;;22.96;47.64
51297;BME280;37380;45.186;9.792;2022-09-20T14:18:12;100798.44;;;22.22;47.75
51297;BME280;37380;45.186;9.792;2022-09-20T14:20:45;100942.31;;;22.90;47.09
51297;BME280;37380;45.186;9.792;2022-09-20T14:23:27;100959.72;;;23.22;46.10
51297;BME280;37380;45.186;9.792;2022-09-20T14:28:48;100993.59;;;23.12;46.24
51297;BME280;37380;45.186;9.792;2022-09-20T14:31:49;100976.59;;;23.22;46.54
51297;BME280;37380;45.186;9.792;2022-09-20T14:35:11;100929.66;;;23.09;47.37
51297;BME280;37380;45.186;9.792;2022-09-20T14:37:45;100990.31;;;23.58;48.83
51297;BME280;37380;45.186;9.792;2022-09-20T14:40:48;100962.16;;;23.36;46.02
51297;BME280;37380;45.186;9.792;2022-09-20T14:43:25;100978.66;;;23.65;48.29
51297;BME280;37380;45.186;9.792;2022-09-20T14:45:59;100979.63;;;23.58;47.71
51297;BME280;37380;45.186;9.792;2022-09-20T14:48:37;100982.44;;;23.49;49.44
51297;BME280;37380;45.186;9.792;2022-09-20T14:54:27;100972.69;;;23.48;45.74
51297;BME280;37380;45.186;9.792;2022-09-20T14:57:40;100760.34;;;22.15;48.21
51297;BME280;37380;45.186;9.792;2022-09-20T15:00:52;100970.03;;;23.46;45.47
51297;BME280;37380;45.186;9.792;2022-09-20T15:04:19;100970.91;;;23.47;44.46
51297;BME280;37380;45.186;9.792;2022-09-20T15:07:17;100874.84;;;22.88;44.61
51297;BME280;37380;45.186;9.792;2022-09-20T15:09:44;100852.81;;;22.75;44.84
51297;BME280;37380;45.186;9.792;2022-09-20T15:12:15;100742.66;;;22.10;45.19
51297;BME280;37380;45.186;9.792;2022-09-20T15:14:46;100964.34;;;23.06;45.45
51297;BME280;37380;45.186;9.792;2022-09-20T15:17:19;100968.53;;;23.25;44.28
51297;BME280;37380;45.186;9.792;2022-09-20T15:19:48;100965.13;;;23.14;44.65
51297;BME280;37380;45.186;9.792;2022-09-20T15:22:22;100820.34;;;22.46;45.23
51297;BME280;37380;45.186;9.792;2022-09-20T15:25:25;100958.00;;;23.15;44.40
51297;BME280;37380;45.186;9.792;2022-09-20T15:27:55;100948.84;;;23.36;44.57
51297;BME280;37380;45.186;9.792;2022-09-20T15:30:23;100834.13;;;22.78;44.02
51297;BME280;37380;45.186;9.792;2022-09-20T15:32:52;100732.06;;;22.07;42.72
51297;BME280;37380;45.186;9.792;2022-09-20T15:35:19;100864.66;;;22.50;43.21
51297;BME280;37380;45.186;9.792;2022-09-20T15:37:49;100890.19;;;22.69;44.40
51297;BME280;37380;45.186;9.792;2022-09-20T15:40:17;100730.44;;;21.95;45.82
51297;BME280;37380;45.186;9.792;2022-09-20T15:42:44;100877.63;;;22.77;46.32
51297;BME280;37380;45.186;9.792;2022-09-20T15:45:14;100961.59;;;23.12;47.38
51297;BME280;37380;45.186;9.792;2022-09-20T15:47:48;100934.16;;;23.07;47.08
51297;BME280;37380;45.186;9.792;2022-09-20T15:50:43;100794.06;;;22.20;46.08
51297;BME280;37380;45.186;9.792;2022-09-20T15:53:10;100736.72;;;21.86;47.84
51297;BME280;37380;45.186;9.792;2022-09-20T15:55:45;100825.69;;;22.44;47.24
51297;BME280;37380;45.186;9.792;2022-09-20T15:58:50;100827.63;;;22.30;46.50
51297;BME280;37380;45.186;9.792;2022-09-20T16:01:53;100720.84;;;21.80;46.64
51297;BME280;37380;45.186;9.792;2022-09-20T16:04:43;100831.88;;;22.45;47.83
51297;BME280;37380;45.186;9.792;2022-09-20T16:07:10;100801.25;;;22.08;48.39
51297;BME280;37380;45.186;9.792;2022-09-20T16:09:38;100752.88;;;21.71;48.44
51297;BME280;37380;45.186;9.792;2022-09-20T16:12:09;100892.25;;;22.43;48.26
51297;BME280;37380;45.186;9.792;2022-09-20T16:14:47;100924.06;;;22.58;48.14
51297;BME280;37380;45.186;9.792;2022-09-20T16:17:43;100730.88;;;21.54;48.33
51297;BME280;37380;45.186;9.792;2022-09-20T16:20:29;100949.56;;;22.77;49.13
51297;BME280;37380;45.186;9.792;2022-09-20T16:23:03;100906.31;;;22.54;47.85
51297;BME280;37380;45.186;9.792;2022-09-20T16:26:05;100917.94;;;22.48;48.83
51297;BME280;37380;45.186;9.792;2022-09-20T16:28:33;100904.78;;;22.33;49.87
51297;BME280;37380;45.186;9.792;2022-09-20T16:31:02;100866.94;;;22.00;50.80
51297;BME280;37380;45.186;9.792;2022-09-20T16:33:29;100798.94;;;21.73;50.77
51297;BME280;37380;45.186;9.792;2022-09-20T16:36:07;100719.56;;;21.29;49.37
51297;BME280;37380;45.186;9.792;2022-09-20T16:39:15;100866.88;;;22.08;50.33
51297;BME280;37380;45.186;9.792;2022-09-20T16:42:17;100892.53;;;22.18;50.87
51297;BME280;37380;45.186;9.792;2022-09-20T16:44:51;100902.28;;;22.14;50.95
51297;BME280;37380;45.186;9.792;2022-09-20T16:47:53;100905.03;;;22.04;51.49
51297;BME280;37380;45.186;9.792;2022-09-20T16:50:30;100935.09;;;22.18;51.86
51297;BME280;37380;45.186;9.792;2022-09-20T16:53:31;100965.28;;;22.17;53.00
51297;BME280;37380;45.186;9.792;2022-09-20T16:56:34;100862.81;;;21.64;52.68
51297;BME280;37380;45.186;9.792;2022-09-20T16:59:39;100962.63;;;22.12;52.32
51297;BME280;37380;45.186;9.792;2022-09-20T17:02:44;100957.31;;;22.12;52.35
51297;BME280;37380;45.186;9.792;2022-09-20T17:05:48;100856.94;;;21.17;53.55
51297;BME280;37380;45.186;9.792;2022-09-20T17:08:17;100946.25;;;21.51;54.63
51297;BME280;37380;45.186;9.792;2022-09-20T17:10:45;100943.66;;;21.35;55.47
51297;BME280;37380;45.186;9.792;2022-09-20T17:13:24;100758.31;;;20.14;55.75
51297;BME280;37380;45.186;9.792;2022-09-20T17:16:38;100989.72;;;21.42;56.44
51297;BME280;37380;45.186;9.792;2022-09-20T17:19:10;100987.06;;;21.36;57.02
51297;BME280;37380;45.186;9.792;2022-09-20T17:21:43;100834.31;;;20.40;58.21
51297;BME280;37380;45.186;9.792;2022-09-20T17:24:18;100949.97;;;21.16;58.02
51297;BME280;37380;45.186;9.792;2022-09-20T17:26:58;101018.16;;;21.15;59.03
51297;BME280;37380;45.186;9.792;2022-09-20T17:29:30;101007.50;;;21.17;59.00
51297;BME280;37380;45.186;9.792;2022-09-20T17:31:57;100868.81;;;20.32;59.08
51297;BME280;37380;45.186;9.792;2022-09-20T17:34:27;100988.13;;;20.95;59.61
51297;BME280;37380;45.186;9.792;2022-09-20T17:36:55;100819.41;;;19.85;60.37
51297;BME280;37380;45.186;9.792;2022-09-20T17:39:29;100842.38;;;19.94;60.46
51297;BME280;37380;45.186;9.792;2022-09-20T17:42:23;100860.03;;;19.99;61.07
51297;BME280;37380;45.186;9.792;2022-09-20T17:44:57;100960.75;;;20.65;60.89
51297;BME280;37380;45.186;9.792;2022-09-20T17:47:53;101005.00;;;20.83;61.17
51297;BME280;37380;45.186;9.792;2022-09-20T17:50:28;100871.56;;;19.84;61.26
51297;BME280;37380;45.186;9.792;2022-09-20T17:53:10;100953.72;;;20.32;61.73
51297;BME280;37380;45.186;9.792;2022-09-20T17:56:04;100983.78;;;20.46;62.51
51297;BME280;37380;45.186;9.792;2022-09-20T17:58:41;100989.09;;;20.48;62.35
51297;BME280;37380;45.186;9.792;2022-09-20T18:01:49;100776.09;;;19.11;62.70
51297;BME280;37380;45.186;9.792;2022-09-20T18:04:28;100952.84;;;20.18;63.30
51297;BME280;37380;45.186;9.792;2022-09-20T18:07:29;100881.25;;;19.64;63.37
51297;BME280;37380;45.186;9.792;2022-09-20T18:10:30;100987.34;;;20.15;64.03
51297;BME280;37380;45.186;9.792;2022-09-20T18:13:24;100930.78;;;19.70;64.92
51297;BME280;37380;45.186;9.792;2022-09-20T18:15:53;100928.13;;;19.66;64.87
51297;BME280;37380;45.186;9.792;2022-09-20T18:18:21;101028.03;;;20.17;64.99
51297;BME280;37380;45.186;9.792;2022-09-20T18:20:48;100928.06;;;19.56;65.07
51297;BME280;37380;45.186;9.792;2022-09-20T18:23:16;101000.59;;;19.98;65.13
51297;BME280;37380;45.186;9.792;2022-09-20T18:25:43;101022.72;;;20.07;65.10
51297;BME280;37380;45.186;9.792;2022-09-20T18:28:30;100951.03;;;19.64;64.72
51297;BME280;37380;45.186;9.792;2022-09-20T18:31:01;100993.50;;;19.77;65.72
51297;BME280;37380;45.186;9.792;2022-09-20T18:33:30;101014.78;;;20.01;65.57
51297;BME280;37380;45.186;9.792;2022-09-20T18:36:04;101046.59;;;20.04;65.99
51297;BME280;37380;45.186;9.792;2022-09-20T18:38:59;100994.38;;;19.77;65.84
51297;BME280;37380;45.186;9.792;2022-09-20T18:41:28;101038.66;;;20.10;65.28
51297;BME280;37380;45.186;9.792;2022-09-20T18:44:05;100917.38;;;19.16;65.40
51297;BME280;37380;45.186;9.792;2022-09-20T18:47:01;101053.66;;;19.90;67.26
51297;BME280;37380;45.186;9.792;2022-09-20T18:49:29;100944.72;;;19.13;67.24
51297;BME280;37380;45.186;9.792;2022-09-20T18:51:57;101024.38;;;19.62;66.88